createdAt,value
2018-07-20T00:03:53.077Z,51.96
2018-07-20T00:07:59.464Z,51.98
2018-07-20T00:12:04.490Z,52.59
2018-07-20T00:16:09.064Z,52.13
2018-07-20T00:20:14.231Z,53.26
2018-07-20T00:24:19.686Z,52.38
2018-07-20T00:28:24.878Z,53.06
2018-07-20T00:32:32.851Z,53.42
2018-07-20T00:36:37.790Z,52.53
2018-07-20T00:40:42.310Z,53.08
2018-07-20T00:44:48.009Z,52.63
2018-07-20T00:48:54.009Z,53.65
2018-07-20T00:52:58.553Z,53.23
2018-07-20T00:57:04.406Z,52.82
2018-07-20T01:01:10.510Z,52.99
2018-07-20T01:05:15.592Z,53.61
2018-07-20T01:09:20.320Z,52.97
2018-07-20T01:13:24.888Z,52.95
2018-07-20T01:17:30.445Z,53.15
2018-07-20T01:21:37.594Z,53.16
2018-07-20T01:25:48.681Z,52.61
2018-07-20T01:29:55.141Z,53.18
2018-07-20T01:34:05.987Z,53.22
2018-07-20T01:38:10.838Z,53.38
2018-07-20T01:42:15.498Z,53.56
2018-07-20T01:46:19.807Z,53.43
2018-07-20T01:50:24.438Z,53.57
2018-07-20T01:54:29.375Z,53.56
2018-07-20T01:58:33.766Z,53.85
2018-07-20T02:02:40.087Z,53.11
2018-07-20T02:06:45.101Z,54.09
2018-07-20T02:10:58.962Z,53.37
2018-07-20T02:15:05.119Z,53.35
2018-07-20T02:19:09.707Z,53.83
2018-07-20T02:23:15.692Z,53.63
2018-07-20T02:27:20.961Z,54.38
2018-07-20T02:31:27.091Z,53.97
2018-07-20T02:35:31.956Z,54.81
2018-07-20T02:39:38.487Z,54.43
2018-07-20T02:43:43.900Z,54.59
2018-07-20T02:47:50.051Z,54.42
2018-07-20T02:51:56.103Z,55.46
2018-07-20T02:56:00.510Z,54.81
2018-07-20T03:00:05.036Z,55.56
2018-07-20T03:04:10.677Z,55.99
2018-07-20T03:08:15.661Z,55.52
2018-07-20T03:12:20.922Z,56.28
2018-07-20T03:16:26.045Z,56.22
2018-07-20T03:20:32.274Z,56.11
2018-07-20T03:24:36.753Z,56.58
2018-07-20T03:28:42.122Z,56.91
2018-07-20T03:32:50.052Z,56.19
2018-07-20T03:36:58.001Z,56.41
2018-07-20T03:41:02.947Z,56.27
2018-07-20T03:45:09.328Z,56.41
2018-07-20T03:53:28.267Z,56.89
2018-07-20T03:57:33.125Z,57.73
2018-07-20T04:01:40.927Z,57.92
2018-07-20T04:05:47.610Z,57.63
2018-07-20T04:09:54.687Z,57.88
2018-07-20T04:14:00.342Z,57.49
2018-07-20T04:18:07.947Z,57.59
2018-07-20T04:22:14.778Z,57.50
2018-07-20T04:26:24.772Z,57.95
2018-07-20T04:30:30.793Z,58.11
2018-07-20T04:34:40.234Z,57.85
2018-07-20T04:38:54.731Z,58.06
2018-07-20T04:43:11.527Z,58.89
2018-07-20T04:47:33.484Z,57.94
2018-07-20T04:51:49.878Z,58.18
2018-07-20T04:56:04.895Z,58.05
2018-07-20T05:00:25.979Z,58.79
2018-07-20T05:04:34.878Z,58.46
2018-07-20T05:08:50.860Z,57.91
2018-07-20T05:12:59.529Z,58.42
2018-07-20T05:17:18.068Z,58.55
2018-07-20T05:21:32.107Z,58.34
2018-07-20T05:26:09.130Z,58.04
2018-07-20T05:30:35.573Z,58.02
2018-07-20T05:34:39.339Z,57.82
2018-07-20T05:38:42.844Z,57.43
2018-07-20T05:42:46.298Z,55.89
2018-07-20T05:46:49.757Z,55.73
2018-07-20T05:50:53.208Z,55.24
2018-07-20T05:54:56.755Z,54.03
2018-07-20T05:59:00.260Z,53.88
2018-07-20T06:03:03.734Z,53.76
2018-07-20T06:07:07.186Z,53.03
2018-07-20T06:11:10.650Z,52.50
2018-07-20T06:15:14.086Z,52.06
2018-07-20T06:19:17.530Z,51.37
2018-07-20T06:23:21.047Z,50.77
2018-07-20T06:27:24.555Z,51.50
2018-07-20T06:31:28.018Z,50.81
2018-07-20T06:35:31.490Z,51.02
2018-07-20T06:39:34.971Z,49.37
2018-07-20T06:43:38.399Z,50.12
2018-07-20T06:47:41.897Z,50.94
2018-07-20T06:51:45.331Z,49.05
2018-07-20T06:55:48.804Z,49.92
2018-07-20T06:59:52.263Z,49.27
2018-07-20T07:03:55.833Z,49.18
2018-07-20T07:07:59.418Z,48.15
2018-07-20T07:12:02.855Z,48.47
2018-07-20T07:16:06.806Z,47.46
2018-07-20T07:20:10.369Z,48.48
2018-07-20T07:24:13.852Z,48.21
2018-07-20T07:28:17.354Z,48.62
2018-07-20T07:32:20.845Z,48.00
2018-07-20T07:36:24.315Z,47.12
2018-07-20T07:40:27.762Z,48.32
2018-07-20T07:44:31.248Z,47.75
2018-07-20T07:48:34.732Z,47.38
2018-07-20T07:52:38.253Z,47.50
2018-07-20T07:56:41.976Z,46.78
2018-07-20T08:00:45.493Z,46.46
2018-07-20T08:04:48.983Z,46.23
2018-07-20T08:08:52.443Z,46.89
2018-07-20T08:12:56.149Z,45.49
2018-07-20T08:16:59.730Z,47.28
2018-07-20T08:21:03.276Z,47.04
2018-07-20T08:25:06.826Z,46.94
2018-07-20T08:29:10.321Z,46.44
2018-07-20T08:33:13.790Z,46.62
2018-07-20T08:37:17.354Z,47.30
2018-07-20T08:41:21.210Z,46.17
2018-07-20T08:45:24.651Z,45.77
2018-07-20T08:49:28.118Z,46.38
2018-07-20T08:53:31.740Z,47.04
2018-07-20T08:57:35.200Z,46.24
2018-07-20T09:01:38.784Z,46.20
2018-07-20T09:05:42.247Z,45.92
2018-07-20T09:09:45.731Z,47.10
2018-07-20T09:13:49.409Z,46.53
2018-07-20T09:17:52.735Z,46.63
2018-07-20T09:21:56.308Z,46.50
2018-07-20T09:25:59.770Z,46.41
2018-07-20T09:30:03.253Z,45.00
2018-07-20T09:34:07.031Z,44.06
2018-07-20T09:38:10.523Z,44.05
2018-07-20T09:42:14.058Z,44.71
2018-07-20T09:46:17.534Z,44.42
2018-07-20T09:50:20.966Z,43.85
2018-07-20T09:54:24.458Z,43.46
2018-07-20T09:58:28.034Z,43.05
2018-07-20T10:02:31.427Z,43.17
2018-07-20T10:06:34.959Z,43.36
2018-07-20T10:10:38.415Z,43.87
2018-07-20T10:14:41.914Z,43.14
2018-07-20T10:18:45.767Z,43.79
2018-07-20T10:22:49.264Z,42.68
2018-07-20T10:26:52.753Z,41.89
2018-07-20T10:30:56.238Z,42.49
2018-07-20T10:34:59.785Z,42.29
2018-07-20T10:39:03.359Z,42.34
2018-07-20T10:43:06.892Z,41.31
2018-07-20T10:47:10.329Z,42.58
2018-07-20T10:51:13.786Z,42.63
2018-07-20T10:55:17.569Z,41.79
2018-07-20T10:59:21.047Z,40.86
2018-07-20T11:03:24.590Z,39.90
2018-07-20T11:07:28.035Z,41.13
2018-07-20T11:11:31.539Z,41.19
2018-07-20T11:15:35.060Z,40.77
2018-07-20T11:19:40.104Z,40.29
2018-07-20T11:23:43.566Z,40.41
2018-07-20T11:27:47.129Z,39.53
2018-07-20T11:31:50.598Z,39.02
2018-07-20T11:35:54.094Z,40.12
2018-07-20T11:39:57.549Z,39.78
2018-07-20T11:44:01.011Z,39.08
2018-07-20T11:48:04.466Z,38.03
2018-07-20T11:52:07.943Z,39.64
2018-07-20T11:56:11.378Z,39.06
2018-07-20T12:00:14.893Z,39.71
2018-07-20T12:04:18.363Z,38.99
2018-07-20T12:08:21.828Z,38.21
2018-07-20T12:12:25.251Z,38.18
2018-07-20T12:16:28.718Z,36.44
2018-07-20T12:20:32.197Z,38.01
2018-07-20T12:24:35.638Z,38.22
2018-07-20T12:28:39.171Z,39.30
2018-07-20T12:32:42.622Z,38.22
2018-07-20T12:36:46.166Z,38.27
2018-07-20T12:40:49.746Z,37.66
2018-07-20T12:44:53.258Z,38.42
2018-07-20T12:48:56.690Z,37.33
2018-07-20T12:53:00.162Z,37.71
2018-07-20T12:57:03.842Z,39.17
2018-07-20T13:01:07.325Z,38.56
2018-07-20T13:05:10.787Z,37.95
2018-07-20T13:09:14.273Z,37.14
2018-07-20T13:13:17.751Z,36.88
2018-07-20T13:17:21.212Z,37.64
2018-07-20T13:21:24.617Z,38.22
2018-07-20T13:25:28.157Z,38.29
2018-07-20T13:29:31.664Z,38.32
2018-07-20T13:33:36.093Z,38.06
2018-07-20T13:37:39.562Z,37.53
2018-07-20T13:41:43.010Z,37.52
2018-07-20T13:45:46.517Z,36.70
2018-07-20T13:49:50.097Z,36.75
2018-07-20T13:53:53.606Z,36.98
2018-07-20T13:57:57.135Z,37.45
2018-07-20T14:02:00.603Z,37.81
2018-07-20T14:06:04.147Z,36.54
2018-07-20T14:10:07.656Z,36.93
2018-07-20T14:14:11.262Z,37.56
2018-07-20T14:18:14.782Z,36.29
2018-07-20T14:22:18.214Z,36.58
2018-07-20T14:26:21.712Z,36.94
2018-07-20T14:30:25.146Z,37.09
2018-07-20T14:34:28.633Z,37.02
2018-07-20T14:38:32.158Z,35.95
2018-07-20T14:42:35.662Z,35.48
2018-07-20T14:46:39.134Z,36.61
2018-07-20T14:50:42.580Z,37.58
2018-07-20T14:54:46.098Z,38.78
2018-07-20T14:58:49.596Z,38.65
2018-07-20T15:02:53.063Z,38.19
2018-07-20T15:06:56.588Z,36.10
2018-07-20T15:11:00.112Z,35.20
2018-07-20T15:15:03.599Z,35.51
2018-07-20T15:19:07.278Z,36.80
2018-07-20T15:23:11.847Z,35.95
2018-07-20T15:27:15.347Z,35.51
2018-07-20T15:31:18.884Z,35.44
2018-07-20T15:35:22.268Z,36.33
2018-07-20T15:39:25.768Z,35.98
2018-07-20T15:43:29.213Z,36.63
2018-07-20T15:47:32.870Z,36.40
2018-07-20T15:53:35.054Z,35.47
2018-07-20T15:55:39.722Z,34.47
2018-07-20T15:59:43.260Z,34.46
2018-07-20T16:03:46.645Z,35.70
2018-07-20T16:07:50.146Z,36.68
2018-07-20T16:11:53.610Z,35.74
2018-07-20T16:15:57.157Z,35.89
2018-07-20T16:20:00.616Z,34.94
2018-07-20T16:24:04.190Z,35.25
2018-07-20T16:28:07.716Z,35.63
2018-07-20T16:32:11.268Z,35.74
2018-07-20T16:36:14.730Z,35.67
2018-07-20T16:40:18.231Z,37.15
2018-07-20T16:44:21.836Z,35.81
2018-07-20T16:48:25.336Z,34.81
2018-07-20T16:52:28.814Z,36.35
2018-07-20T16:56:32.251Z,36.67
2018-07-20T17:00:35.709Z,35.57
2018-07-20T17:04:39.134Z,36.25
2018-07-20T17:08:42.658Z,36.12
2018-07-20T17:12:46.094Z,35.42
2018-07-20T17:16:49.608Z,35.88
2018-07-20T17:20:53.086Z,35.30
2018-07-20T17:24:56.538Z,35.45
2018-07-20T17:29:00.005Z,36.06
2018-07-20T17:33:03.510Z,36.82
2018-07-20T17:37:06.962Z,37.03
2018-07-20T17:41:10.394Z,36.70
2018-07-20T17:45:13.892Z,38.23
2018-07-20T17:49:17.377Z,36.60
2018-07-20T17:53:20.843Z,36.81
2018-07-20T17:57:24.338Z,37.99
2018-07-20T18:01:27.861Z,37.44
2018-07-20T18:05:31.382Z,37.65
2018-07-20T18:09:34.831Z,37.86
2018-07-20T18:13:38.315Z,38.28
2018-07-20T18:17:41.891Z,38.74
2018-07-20T18:21:45.358Z,39.65
2018-07-20T18:25:48.851Z,39.39
2018-07-20T18:29:52.322Z,39.63
2018-07-20T18:33:55.894Z,40.73
2018-07-20T18:37:59.295Z,41.14
2018-07-20T18:42:02.803Z,41.10
2018-07-20T18:46:06.454Z,41.75
2018-07-20T18:50:10.532Z,41.09
2018-07-20T18:54:13.962Z,41.68
2018-07-20T18:58:17.430Z,41.67
2018-07-20T19:02:20.910Z,42.15
2018-07-20T19:06:24.615Z,42.60
2018-07-20T19:10:28.035Z,42.83
2018-07-20T19:14:31.523Z,43.10
2018-07-20T19:18:34.982Z,43.48
2018-07-20T19:22:38.433Z,42.95
2018-07-20T19:26:42.102Z,43.71
2018-07-20T19:30:45.568Z,43.44
2018-07-20T19:34:49.168Z,44.14
2018-07-20T19:38:52.658Z,44.30
2018-07-20T19:42:56.341Z,45.16
2018-07-20T19:46:59.814Z,45.27
2018-07-20T19:51:03.326Z,45.40
2018-07-20T19:55:07.339Z,46.04
2018-07-20T19:59:10.779Z,45.22
2018-07-20T20:03:14.222Z,44.92
2018-07-20T20:07:17.696Z,46.00
2018-07-20T20:11:21.164Z,46.04
2018-07-20T20:15:24.674Z,45.57
2018-07-20T20:19:28.166Z,45.53
2018-07-20T20:23:31.664Z,46.52
2018-07-20T20:27:35.114Z,46.09
2018-07-20T20:31:38.566Z,46.05
2018-07-20T20:35:42.030Z,46.96
2018-07-20T20:39:45.520Z,46.93
2018-07-20T20:43:49.018Z,47.21
2018-07-20T20:47:52.469Z,48.91
2018-07-20T20:51:55.974Z,47.91
2018-07-20T20:55:59.446Z,47.90
2018-07-20T21:00:02.960Z,48.33
2018-07-20T21:04:06.464Z,48.62
2018-07-20T21:08:09.907Z,48.83
2018-07-20T21:12:13.420Z,48.87
2018-07-20T21:16:16.808Z,49.38
2018-07-20T21:20:20.250Z,49.35
2018-07-20T21:24:23.693Z,49.37
2018-07-20T21:28:27.150Z,49.58
2018-07-20T21:32:30.664Z,49.50
2018-07-20T21:36:34.137Z,50.32
2018-07-20T21:40:37.631Z,49.61
2018-07-20T21:44:41.182Z,51.97
2018-07-20T21:48:44.744Z,53.12
2018-07-20T21:52:48.216Z,52.82
2018-07-20T21:56:51.651Z,53.50
2018-07-20T22:00:55.139Z,52.68
2018-07-20T22:04:58.563Z,51.97
2018-07-20T22:09:02.035Z,51.95
2018-07-20T22:13:05.509Z,52.57
2018-07-20T22:17:08.951Z,52.27
2018-07-20T22:21:12.457Z,53.41
2018-07-20T22:25:15.920Z,52.65
2018-07-20T22:29:19.358Z,53.17
2018-07-20T22:33:22.830Z,54.45
2018-07-20T22:37:26.258Z,54.75
2018-07-20T22:41:29.768Z,55.34
2018-07-20T22:45:33.209Z,55.08
2018-07-20T22:49:36.680Z,55.58
2018-07-20T22:53:40.188Z,56.41
2018-07-20T22:57:43.657Z,55.41
2018-07-20T23:01:47.190Z,55.08
2018-07-20T23:05:50.611Z,55.25
2018-07-20T23:09:54.105Z,55.16
2018-07-20T23:13:57.981Z,55.61
2018-07-20T23:18:01.508Z,55.98
2018-07-20T23:22:04.926Z,55.49
2018-07-20T23:26:08.446Z,56.29
2018-07-20T23:30:11.919Z,55.86
2018-07-20T23:34:15.391Z,56.32
2018-07-20T23:38:18.863Z,55.71
2018-07-20T23:42:22.299Z,55.70
2018-07-20T23:46:25.852Z,56.40
2018-07-20T23:50:29.334Z,56.94
2018-07-20T23:54:32.796Z,56.76
2018-07-20T23:58:36.237Z,56.93
